Aeroporto :
LOGIN :

Iscrizione | Disclaimer

   EN    FR    IT 

 










Sommario :    VFR   VFR Marginale   IFR   IFR Intensivo   IFR Molto Intensivo
Visibilità : 
Base nubi : 
>= 8 km
>= 3000ft
5 / 8 km
1000 / 3000 ft
1500m / 5 km
500 / 1000 ft
800 / 1500m
200 / 500 ft
< 800m
< 200 ft
Simboli :   Temporali  Nebbia  Neve Forte  Precipitazioni Forti  Vento > 20 kt
SIGMETs :   Varie  Temporali  Ghiacco  Turbolenza  Onda orograficha  Ceneri Vulcaniche






- Altitudine del aeroporto : 586 ft
- Codice IATA : IEV


UKKK - Zhuliany

ULTIMO METAR :
  • 242200Z 30006MPS CAVOK 01/M01 Q1009 R26/190060 NOSIG

METARs OBSOLETI :
  • 242130Z 30005MPS CAVOK 01/M01 Q1008 R26/290058 TEMPO 33010G15MPS
  • 242100Z 29006MPS 9999 FEW047 01/M01 Q1008 R26/290058 TEMPO 33010G15MPS
  • 242030Z 30006MPS 9999 FEW048 02/M01 Q1008 R26/290058 TEMPO 33010G15MPS
  • 242000Z 31006MPS CAVOK 02/M01 Q1007 R26/290058 TEMPO 33010G15MPS
  • 241930Z 30006MPS CAVOK 02/M00 Q1007 R26/290058 TEMPO 33010G15MPS

TAF TAF UKKK
Valido dal 24 a 18 ore il 25 a 18 ore UTC


241705Z 2418/2518 30006G12MPS 6000 OVC007 TX05/2512Z TNM02/2505Z
TEMPO 2418/2422 33010G15MPS 2100 -SHRASN BKN004 SCT015CB
BECMG 2422/2424 27005G10MPS 9999 BKN010
BECMG 2504/2506 22007G12MPS



MetMap, La meteo Aeronautica in un colpo d'occhio ! - Copyright ORBIFLY Dicembre 2007 - Disclaimer

ORBIFLY MET'MAP TEAM :

Programmazione e sviluppo : Alexandra Zaïnal
Concezione : Baudouin d'Aumeries
Aiuto per la programmazione : Marc-Olivier Méhu
Supporto tecnico e logistico : Manuel Goepfert
Aiuto per la traduzione : Arnaldo La Scala

Contatto : metmap@orbifly.com




FONTI E CREDITI :

   NOAA